createdAt,value
2023-04-02T00:01:47.216Z,99.9
2023-04-02T00:03:47.038Z,99.9
2023-04-02T00:05:48.286Z,99.9
2023-04-02T00:09:46.255Z,99.9
2023-04-02T00:13:45.830Z,99.9
2023-04-02T00:19:48.896Z,99.9
2023-04-02T00:22:04.585Z,99.9
2023-04-02T00:26:04.178Z,99.9
2023-04-02T00:30:07.096Z,99.9
2023-04-02T00:32:07.020Z,99.9
2023-04-02T00:34:06.708Z,99.9
2023-04-02T00:36:06.573Z,99.9
2023-04-02T00:40:06.088Z,99.9
2023-04-02T00:44:09.171Z,99.9
2023-04-02T00:46:09.004Z,99.9
2023-04-02T00:48:08.839Z,99.9
2023-04-02T00:50:08.563Z,99.9
2023-04-02T00:52:08.418Z,99.9
2023-04-02T00:54:08.284Z,99.9
2023-04-02T00:56:11.528Z,99.9
2023-04-02T00:58:11.297Z,99.9
2023-04-02T01:02:10.932Z,99.9
2023-04-02T01:04:10.646Z,99.9
2023-04-02T01:10:13.696Z,99.9
2023-04-02T01:12:13.533Z,99.9
2023-04-02T01:17:14.884Z,99.9
2023-04-02T01:27:17.248Z,99.9
2023-04-02T01:35:16.308Z,99.9
2023-04-02T01:37:19.540Z,99.9
2023-04-02T01:39:19.375Z,99.9
2023-04-02T01:41:19.179Z,99.9
2023-04-02T01:55:21.260Z,99.9
2023-04-02T02:03:22.170Z,99.9
2023-04-02T02:05:25.387Z,99.9
2023-04-02T02:07:25.175Z,99.9
2023-04-02T02:09:25.024Z,99.9
2023-04-02T02:10:26.704Z,99.9
2023-04-02T02:12:26.582Z,99.9
2023-04-02T02:14:26.452Z,99.9
2023-04-02T02:18:29.621Z,99.9
2023-04-02T02:20:29.381Z,99.9
2023-04-02T02:22:29.108Z,99.9
2023-04-02T02:28:28.527Z,99.9
2023-04-02T02:30:28.389Z,99.9
2023-04-02T02:32:31.720Z,99.9
2023-04-02T02:34:31.448Z,99.9
2023-04-02T02:36:31.236Z,99.9
2023-04-02T02:38:31.086Z,99.9
2023-04-02T02:40:30.860Z,99.9
2023-04-02T02:42:30.628Z,99.9
2023-04-02T02:44:30.488Z,99.9
2023-04-02T02:50:33.447Z,99.9
2023-04-02T02:54:33.182Z,99.9
2023-04-02T02:56:32.999Z,99.9
2023-04-02T03:00:36.085Z,99.9
2023-04-02T03:02:36.102Z,99.9
2023-04-02T03:04:35.859Z,99.9
2023-04-02T03:05:37.697Z,99.9
2023-04-02T03:07:37.331Z,99.9
2023-04-02T03:13:40.116Z,99.9
2023-04-02T03:15:39.905Z,99.9
2023-04-02T03:17:39.722Z,99.9
2023-04-02T03:19:39.479Z,99.9
2023-04-02T03:21:39.297Z,99.9
2023-04-02T03:23:39.161Z,99.9
2023-04-02T03:25:38.974Z,99.9
2023-04-02T03:27:42.195Z,99.9
2023-04-02T03:29:42.021Z,99.9
2023-04-02T03:31:41.869Z,99.9
2023-04-02T03:35:41.571Z,99.9
2023-04-02T03:37:41.453Z,99.9
2023-04-02T03:39:41.288Z,99.9
2023-04-02T03:41:44.573Z,99.9
2023-04-02T03:43:44.442Z,99.9
2023-04-02T03:45:44.301Z,99.9
2023-04-02T03:47:44.213Z,99.9
2023-04-02T03:49:44.052Z,99.9
2023-04-02T03:53:43.696Z,99.9
2023-04-02T03:55:46.894Z,99.9
2023-04-02T03:59:47.420Z,99.9
2023-04-02T04:02:02.197Z,99.9
2023-04-02T04:04:02.011Z,99.9
2023-04-02T04:06:01.806Z,99.9
2023-04-02T04:08:05.070Z,99.9
2023-04-02T04:18:04.361Z,99.9
2023-04-02T04:26:07.063Z,99.9
2023-04-02T04:28:06.910Z,99.9
2023-04-02T04:30:06.833Z,99.9
2023-04-02T04:32:06.771Z,99.9
2023-04-02T04:34:06.578Z,99.9
2023-04-02T04:36:09.970Z,99.9
2023-04-02T04:38:09.736Z,99.9
2023-04-02T04:40:09.603Z,99.9
2023-04-02T04:42:09.509Z,99.9
2023-04-02T04:44:09.394Z,99.9
2023-04-02T04:46:09.222Z,99.9
2023-04-02T04:48:09.028Z,99.9
2023-04-02T04:50:12.401Z,99.9
2023-04-02T04:52:12.300Z,99.9
2023-04-02T04:54:12.142Z,99.9
2023-04-02T04:55:15.449Z,99.9
2023-04-02T04:59:13.528Z,99.9
2023-04-02T05:01:13.445Z,99.9
2023-04-02T05:03:16.784Z,99.9
2023-04-02T05:09:16.453Z,99.9
2023-04-02T05:11:16.328Z,99.9
2023-04-02T05:13:16.204Z,99.9
2023-04-02T05:15:16.108Z,99.9
2023-04-02T05:17:19.373Z,99.9
2023-04-02T05:21:19.006Z,99.9
2023-04-02T05:23:18.906Z,99.9
2023-04-02T05:25:18.805Z,99.9
2023-04-02T05:27:18.712Z,99.9
2023-04-02T05:31:22.022Z,99.9
2023-04-02T05:43:21.327Z,99.9
2023-04-02T05:45:24.581Z,99.9
2023-04-02T05:50:26.137Z,99.9
2023-04-02T05:52:25.975Z,99.9
2023-04-02T06:08:28.584Z,99.9
2023-04-02T06:10:28.470Z,99.9
2023-04-02T06:12:31.856Z,99.9
2023-04-02T06:14:31.740Z,99.9
2023-04-02T06:18:31.538Z,99.9
2023-04-02T06:20:31.445Z,99.9
2023-04-02T06:22:31.342Z,99.9
2023-04-02T06:24:31.217Z,99.9
2023-04-02T06:26:34.642Z,99.9
2023-04-02T06:28:34.544Z,99.9
2023-04-02T06:30:34.433Z,99.9
2023-04-02T06:32:34.394Z,99.9
2023-04-02T06:36:34.135Z,99.9
2023-04-02T06:38:34.044Z,99.9
2023-04-02T06:40:37.403Z,99.9
2023-04-02T06:42:37.303Z,99.9
2023-04-02T06:44:37.207Z,99.9
2023-04-02T06:45:38.897Z,99.9
2023-04-02T06:51:38.607Z,99.9
2023-04-02T06:53:41.974Z,99.9
2023-04-02T06:55:41.873Z,99.9
2023-04-02T06:57:43.005Z,99.9
2023-04-02T06:59:41.680Z,99.9
2023-04-02T07:01:41.609Z,99.9
2023-04-02T07:03:42.148Z,99.9
2023-04-02T07:05:43.035Z,99.9
2023-04-02T07:07:44.772Z,99.9
2023-04-02T07:09:44.662Z,99.9
2023-04-02T07:13:44.860Z,99.9
2023-04-02T07:15:44.431Z,99.9
2023-04-02T07:17:44.288Z,99.9
2023-04-02T07:19:44.136Z,99.9
2023-04-02T07:21:47.555Z,99.9
2023-04-02T07:23:47.436Z,99.9
2023-04-02T07:25:47.339Z,99.9
2023-04-02T07:29:47.114Z,99.9
2023-04-02T07:33:46.928Z,99.9
2023-04-02T07:37:50.181Z,99.9
2023-04-02T07:39:50.107Z,99.9
2023-04-02T07:42:07.707Z,99.9
2023-04-02T07:44:07.560Z,99.9
2023-04-02T07:46:07.489Z,99.9
2023-04-02T07:48:10.815Z,99.9
2023-04-02T08:08:13.239Z,99.9
2023-04-02T08:12:22.876Z,99.9
2023-04-02T08:20:16.112Z,99.9
2023-04-02T08:26:15.766Z,99.9
2023-04-02T08:30:19.061Z,99.9
2023-04-02T08:32:18.945Z,99.9
2023-04-02T08:34:18.866Z,99.9
2023-04-02T08:35:20.549Z,99.9
2023-04-02T08:41:20.223Z,99.9
2023-04-02T08:43:23.846Z,99.9
2023-04-02T09:01:29.338Z,99.9
2023-04-02T09:03:25.684Z,99.9
2023-04-02T09:07:25.466Z,99.9
2023-04-02T09:09:25.309Z,99.9
2023-04-02T09:13:28.529Z,99.9
2023-04-02T09:15:28.360Z,99.9
2023-04-02T09:17:29.191Z,99.9
2023-04-02T09:23:27.743Z,99.9
2023-04-02T09:30:32.322Z,98.6
2023-04-02T09:32:32.116Z,97.8
2023-04-02T09:34:31.938Z,97.4
2023-04-02T09:36:31.896Z,97.2
2023-04-02T09:42:34.755Z,93.8
2023-04-02T09:44:34.322Z,92.1
2023-04-02T09:46:34.135Z,89.8
2023-04-02T09:48:33.899Z,84.8
2023-04-02T09:50:33.684Z,84.3
2023-04-02T09:52:37.078Z,82.7
2023-04-02T09:58:35.956Z,84.2
2023-04-02T10:02:35.404Z,83.5
2023-04-02T10:06:38.195Z,88.5
2023-04-02T10:12:37.308Z,77.6
2023-04-02T10:14:37.002Z,78.5
2023-04-02T10:16:36.741Z,78
2023-04-02T10:18:36.419Z,76.6
2023-04-02T10:20:50.343Z,76.6
2023-04-02T10:22:39.213Z,77.6
2023-04-02T10:24:38.864Z,72.8
2023-04-02T10:25:40.377Z,73.9
2023-04-02T10:27:40.083Z,74.2
2023-04-02T10:43:40.531Z,75.4
2023-04-02T10:45:40.085Z,76.3
2023-04-02T10:47:43.202Z,80
2023-04-02T10:49:42.806Z,80.1
2023-04-02T10:51:42.364Z,75.5
2023-04-02T10:53:41.930Z,75.3
2023-04-02T10:55:41.578Z,75.4
2023-04-02T10:57:41.381Z,75
2023-04-02T10:59:40.773Z,74.7
2023-04-02T11:01:43.848Z,78.5
2023-04-02T11:03:43.644Z,78
2023-04-02T11:07:42.591Z,77.2
2023-04-02T11:09:42.147Z,76.6
2023-04-02T11:11:41.721Z,76.2
2023-04-02T11:13:41.327Z,76.1
2023-04-02T11:15:44.343Z,77.3
2023-04-02T11:17:43.889Z,78.3
2023-04-02T11:22:05.224Z,78.6
2023-04-02T11:24:02.344Z,78.5
2023-04-02T11:26:01.934Z,77.8
2023-04-02T11:28:04.936Z,78.2
2023-04-02T11:30:04.513Z,78.3
2023-04-02T11:36:03.297Z,78.7
2023-04-02T11:38:02.826Z,78.3
2023-04-02T11:42:05.412Z,76.3
2023-04-02T11:46:04.588Z,76
2023-04-02T11:48:04.255Z,76.9
2023-04-02T11:50:03.750Z,76.8
2023-04-02T11:52:11.818Z,76.9
2023-04-02T11:54:03.626Z,75.4
2023-04-02T11:56:07.556Z,74.9
2023-04-02T11:58:07.129Z,74.4
2023-04-02T12:00:06.718Z,73.9
2023-04-02T12:04:05.863Z,74.4
2023-04-02T12:06:05.450Z,74.4
2023-04-02T12:10:07.992Z,76
2023-04-02T12:12:07.586Z,76.3
2023-04-02T12:19:07.822Z,75.4
2023-04-02T12:23:10.360Z,73.3
2023-04-02T12:25:09.978Z,72.9
2023-04-02T12:27:09.543Z,72.5
2023-04-02T12:31:08.814Z,72.6
2023-04-02T12:37:10.805Z,71.9
2023-04-02T12:39:10.401Z,71.4
2023-04-02T12:41:09.960Z,71.1
2023-04-02T12:45:09.118Z,65.5
2023-04-02T12:47:08.679Z,65.3
2023-04-02T12:49:08.275Z,65.4
2023-04-02T12:53:10.791Z,65.2
2023-04-02T12:55:10.352Z,65.7
2023-04-02T13:03:08.709Z,66.4
2023-04-02T13:05:11.587Z,65.6
2023-04-02T13:07:11.210Z,65.3
2023-04-02T13:09:10.772Z,64.9
2023-04-02T13:10:12.394Z,64.5
2023-04-02T13:12:11.838Z,64
2023-04-02T13:14:15.033Z,63.7
2023-04-02T13:16:11.093Z,63.6
2023-04-02T13:18:14.003Z,63.1
2023-04-02T13:20:13.551Z,62.9
2023-04-02T13:28:13.423Z,61.7
2023-04-02T13:30:12.987Z,61.2
2023-04-02T13:38:14.737Z,59.9
2023-04-02T13:40:14.318Z,59.9
2023-04-02T13:42:13.941Z,60
2023-04-02T13:44:13.545Z,60
2023-04-02T13:46:16.560Z,60.4
2023-04-02T13:48:16.124Z,56
2023-04-02T13:50:15.726Z,56.6
2023-04-02T13:52:15.311Z,56.8
2023-04-02T13:54:14.884Z,56.7
2023-04-02T13:56:14.531Z,57.5
2023-04-02T13:58:14.090Z,54.3
2023-04-02T14:00:17.105Z,55
2023-04-02T14:02:16.734Z,55
2023-04-02T14:04:16.282Z,55.2
2023-04-02T14:05:17.763Z,55.7
2023-04-02T14:15:19.179Z,54.5
2023-04-02T14:19:18.341Z,54.5
2023-04-02T14:21:17.944Z,54.3
2023-04-02T14:23:17.572Z,54.1
2023-04-02T14:25:17.165Z,54
2023-04-02T14:33:18.957Z,53.3
2023-04-02T14:35:18.565Z,53.3
2023-04-02T14:37:18.176Z,53.1
2023-04-02T14:41:20.771Z,53
2023-04-02T14:43:20.407Z,52.8
2023-04-02T14:45:19.997Z,52.6
2023-04-02T14:47:19.614Z,52.4
2023-04-02T15:03:36.754Z,52.5
2023-04-02T15:05:36.353Z,52.4
2023-04-02T15:07:39.394Z,52.8
2023-04-02T15:17:37.458Z,52.1
2023-04-02T15:19:37.041Z,52
2023-04-02T15:21:49.623Z,51.3
2023-04-02T15:25:39.302Z,50.8
2023-04-02T15:27:38.897Z,50.7
2023-04-02T15:41:39.569Z,51.3
2023-04-02T15:43:39.188Z,51.3
2023-04-02T15:45:39.071Z,51.8
2023-04-02T15:47:38.400Z,52.8
2023-04-02T15:49:41.402Z,53
2023-04-02T15:51:41.016Z,52.1
2023-04-02T15:54:42.145Z,51.4
2023-04-02T15:56:41.742Z,51.4
2023-04-02T16:00:40.981Z,53.1
2023-04-02T16:02:44.057Z,53.2
2023-04-02T16:04:43.651Z,51.4
2023-04-02T16:08:42.863Z,50.8
2023-04-02T16:10:43.376Z,50.7
2023-04-02T16:12:42.141Z,50.8
2023-04-02T16:18:44.429Z,56.4
2023-04-02T16:20:44.071Z,57.7
2023-04-02T16:22:57.263Z,58
2023-04-02T16:26:42.990Z,60.9
2023-04-02T16:28:42.658Z,62.3
2023-04-02T16:30:45.703Z,62.8
2023-04-02T16:40:45.137Z,62.1
2023-04-02T16:49:47.698Z,66.6
2023-04-02T16:51:47.365Z,66.9
2023-04-02T16:54:00.414Z,67.4
2023-04-02T16:55:46.737Z,67.9
2023-04-02T16:57:49.871Z,68.7
2023-04-02T17:03:49.086Z,69
2023-04-02T17:05:48.608Z,69
2023-04-02T17:07:48.330Z,69.1
2023-04-02T17:09:48.050Z,69.1
2023-04-02T17:11:51.145Z,69.4
2023-04-02T17:13:50.852Z,69.6
2023-04-02T17:15:50.654Z,69.8
2023-04-02T17:17:50.361Z,69.9
2023-04-02T17:19:49.953Z,70.5
2023-04-02T17:21:49.703Z,71.3
2023-04-02T17:23:55.765Z,71.8
2023-04-02T17:25:52.538Z,72.9
2023-04-02T17:27:52.238Z,73.3
2023-04-02T17:29:52.001Z,73.8
2023-04-02T17:31:51.665Z,74.3
2023-04-02T17:35:51.179Z,74.7
2023-04-02T17:39:53.957Z,74.9
2023-04-02T17:44:54.928Z,75.3
2023-04-02T17:50:54.112Z,76.1
2023-04-02T17:52:57.245Z,76.9
2023-04-02T17:54:56.977Z,77.2
2023-04-02T17:58:56.423Z,77.8
2023-04-02T18:00:56.245Z,78.3
2023-04-02T18:02:56.015Z,78.8
2023-04-02T18:10:58.245Z,81.6
2023-04-02T18:18:57.256Z,83
2023-04-02T18:32:58.967Z,84.6
2023-04-02T18:39:01.533Z,87
2023-04-02T18:43:23.107Z,89.1
2023-04-02T18:55:25.069Z,92.3
2023-04-02T18:57:24.835Z,92.8
2023-04-02T18:59:24.583Z,93.3
2023-04-02T19:01:27.746Z,94.1
2023-04-02T19:03:27.583Z,94.4
2023-04-02T19:05:27.351Z,94.6
2023-04-02T19:07:27.180Z,94.9
2023-04-02T19:13:26.514Z,95.5
2023-04-02T19:15:31.245Z,96.2
2023-04-02T19:17:31.061Z,96.5
2023-04-02T19:19:30.786Z,96.9
2023-04-02T19:21:30.584Z,97.2
2023-04-02T19:23:30.360Z,97.4
2023-04-02T19:27:29.900Z,97.9
2023-04-02T19:29:33.284Z,98.4
2023-04-02T19:34:34.362Z,98.8
2023-04-02T19:36:34.127Z,99
2023-04-02T19:38:33.986Z,99.1
2023-04-02T19:40:33.854Z,99.3
2023-04-02T19:42:37.105Z,99.7
2023-04-02T19:44:36.950Z,99.8
2023-04-02T19:46:36.795Z,99.9
2023-04-02T19:48:36.607Z,99.9
2023-04-02T19:50:36.453Z,99.9
2023-04-02T19:52:36.237Z,99.9
2023-04-02T20:18:41.070Z,99.9
2023-04-02T20:20:40.937Z,99.9
2023-04-02T20:22:40.802Z,99.9
2023-04-02T20:24:43.975Z,99.9
2023-04-02T20:26:43.842Z,99.9
2023-04-02T20:28:43.631Z,99.9
2023-04-02T20:29:45.256Z,99.9
2023-04-02T20:33:45.208Z,99.9
2023-04-02T20:35:44.922Z,99.9
2023-04-02T20:37:48.165Z,99.9
2023-04-02T20:39:48.037Z,99.9
2023-04-02T20:41:47.832Z,99.9
2023-04-02T20:45:47.541Z,99.9
2023-04-02T20:47:47.422Z,99.9
2023-04-02T21:17:52.475Z,99.9
2023-04-02T21:19:55.840Z,99.9
2023-04-02T21:23:55.624Z,99.9
2023-04-02T21:24:57.335Z,99.9
2023-04-02T21:30:57.008Z,99.9
2023-04-02T21:33:00.426Z,99.9
2023-04-02T21:42:59.912Z,99.9
2023-04-02T21:44:59.816Z,99.9
2023-04-02T21:47:03.166Z,99.9
2023-04-02T21:49:03.026Z,99.9
2023-04-02T21:51:02.936Z,99.9
2023-04-02T21:53:02.820Z,99.9
2023-04-02T21:55:02.721Z,99.9
2023-04-02T21:57:02.666Z,99.9
2023-04-02T21:59:02.523Z,99.9
2023-04-02T22:01:09.104Z,99.9
2023-04-02T22:03:06.076Z,99.9
2023-04-02T22:07:05.688Z,99.9
2023-04-02T22:13:05.426Z,99.9
2023-04-02T22:15:08.813Z,99.9
2023-04-02T22:19:08.657Z,99.9
2023-04-02T22:21:30.386Z,99.9
2023-04-02T22:25:30.178Z,99.9
2023-04-02T22:31:33.634Z,99.9
2023-04-02T22:33:33.355Z,99.9
2023-04-02T22:35:33.308Z,99.9
2023-04-02T22:37:33.144Z,99.9
2023-04-02T22:39:33.097Z,99.9
2023-04-02T22:43:36.426Z,99.9
2023-04-02T22:45:36.332Z,99.9
2023-04-02T22:47:36.294Z,99.9
2023-04-02T22:53:36.009Z,99.9
2023-04-02T22:55:39.443Z,99.9
2023-04-02T22:57:39.352Z,99.9
2023-04-02T22:59:39.303Z,99.9
2023-04-02T23:01:39.224Z,99.9
2023-04-02T23:05:39.049Z,99.9
2023-04-02T23:07:38.959Z,99.9
2023-04-02T23:11:42.289Z,99.9
2023-04-02T23:13:42.232Z,99.9
2023-04-02T23:14:43.929Z,99.9
2023-04-02T23:16:43.894Z,99.9
2023-04-02T23:22:47.073Z,99.9
2023-04-02T23:26:46.918Z,99.9
2023-04-02T23:30:46.768Z,99.9
2023-04-02T23:40:49.904Z,99.9
2023-04-02T23:42:49.807Z,99.9
2023-04-02T23:44:49.756Z,99.9
2023-04-02T23:46:49.702Z,99.9
2023-04-02T23:48:49.577Z,99.9
2023-04-02T23:50:53.005Z,99.9
2023-04-02T23:52:52.906Z,99.9
2023-04-02T23:54:52.834Z,99.9
2023-04-02T23:58:52.678Z,99.9
